Terminal Aerodrome Forecast
Issued by NWS Buffalo, NY

Home | Current Version | Previous Version | Text Only | Print | Product List | Glossary On
Versions: 1 2 3 4 5 6 7 8 9 10 11 12 13 14 15 16 17 18 19 20 21 22 23 24 25 26 27 28 29 30
000
FTUS41 KBUF 290541
TAFROC
TAF
KROC 290541Z 2906/3006 20004KT P6SM BKN200
     FM291900 25006KT P6SM BKN150
     FM292300 VRB03KT P6SM BKN140=

USA.gov is the U.S. government's official web portal to all federal, state and local government web resources and services.